Latest Weather Observations for Low Rocky Point

IDT60801

Issued at 4:05 am EST Tuesday 2 September 2014 (issued every 30 minutes, with the page automatically refreshed every 10 minutes)

About weather observations | Map of weather stations | Latest weather observations for TAS | Other Formats
Station Details ID: 097080 Name: LOW ROCKY POINT Lat: -42.98 Lon: 145.50 Height: 34.0 m
Data from the previous 72 hours. | See also: Recent months at Low Rocky Point
Date/Time
EST
Temp
°C
App
Temp
°C
Dew
Point
Rel
Hum
%
Delta-T
°C
Wind Press
QNH
hPa
Press
MSL
hPa
Rain
since 9 am
mm
Dir
 
Spd
km/h
Gust
km/h
Spd
kts
Gust
kts
02/04:00am 8.7 2.9 2.5 65 2.6 S 22 30 12 16 1015.3 1015.4 5.0
02/03:30am 8.4 2.1 1.8 63 2.7 SSE 24 32 13 17 1015.1 1015.2 5.0
02/03:00am 8.8 1.9 2.8 66 2.5 S 28 37 15 20 1014.8 1014.8 5.0
02/02:30am 8.8 2.4 3.0 67 2.5 S 26 35 14 19 1014.6 1014.7 5.0
02/02:00am 8.8 2.0 3.0 67 2.5 S 28 35 15 19 1014.4 1014.4 5.0
02/01:30am 8.8 2.0 3.2 68 2.4 S 28 39 15 21 1014.2 1014.3 5.0
02/01:00am 9.2 2.6 4.2 71 2.2 SSE 28 35 15 19 1013.8 1013.8 5.0
02/12:30am 9.1 2.4 3.9 70 2.3 S 28 39 15 21 1013.5 1013.6 5.0
02/12:00am 9.3 2.4 4.5 72 2.1 SSE 30 37 16 20 1013.2 1013.3 5.0
 
Date/Time
EST
Temp
°C
App
Temp
°C
Dew
Point
Rel
Hum
%
Delta-T
°C
Wind Press
QNH
hPa
Press
MSL
hPa
Rain
since 9 am
mm
Dir
 
Spd
km/h
Gust
km/h
Spd
kts
Gust
kts
01/11:30pm 9.1 2.5 4.3 72 2.1 SSE 28 39 15 21 1012.8 1012.9 5.0
01/11:00pm 9.3 1.9 3.9 69 2.4 S 32 41 17 22 1012.6 1012.6 5.0
01/10:30pm 9.2 2.2 4.0 70 2.3 SSE 30 41 16 22 1012.4 1012.5 5.0
01/10:00pm 9.5 2.2 5.3 75 1.9 SSE 33 43 18 23 1012.0 1012.0 5.0
01/09:30pm 9.5 2.3 6.0 79 1.6 S 33 41 18 22 1011.6 1011.7 5.0
01/09:00pm 9.2 2.4 6.8 85 1.1 S 32 41 17 22 1011.1 1011.1 5.0
01/08:30pm 8.0 3.9 6.1 88 0.9 ESE 17 28 9 15 1010.8 1010.9 5.0
01/08:00pm 8.3 1.7 5.9 85 1.1 ESE 30 37 16 20 1010.3 1010.3 4.8
01/07:30pm 9.1 4.1 6.4 83 1.2 ESE 22 28 12 15 1009.8 1009.9 4.6
01/07:00pm 9.1 4.7 6.4 83 1.3 ESE 19 22 10 12 1009.3 1009.3 4.6
01/06:30pm 9.6 4.3 6.7 82 1.4 ESE 24 28 13 15 1008.6 1008.7 4.6
01/06:00pm 10.4 3.7 7.3 81 1.5 SSE 32 41 17 22 1007.9 1007.9 4.6
01/05:30pm 10.5 4.9 7.0 79 1.7 SSE 26 35 14 19 1007.6 1007.7 4.6
01/05:00pm 10.3 5.0 7.0 80 1.6 S 24 32 13 17 1007.1 1007.1 4.6
01/04:30pm 10.2 6.2 6.7 79 1.6 SSE 17 24 9 13 1006.4 1006.5 4.6
01/04:00pm 10.5 6.0 6.8 78 1.8 SSE 20 26 11 14 1006.3 1006.3 4.6
01/03:30pm 10.8 5.6 7.1 78 1.8 SSE 24 32 13 17 1005.7 1005.8 4.6
01/03:00pm 11.1 6.1 8.0 81 1.5 SSE 24 32 13 17 1005.5 1005.5 4.6
01/02:30pm 11.0 5.7 8.6 85 1.2 SE 26 35 14 19 1005.3 1005.4 4.6
01/02:00pm 10.5 4.9 8.8 89 0.8 SSE 28 33 15 18 1005.2 1005.2 4.6
01/01:30pm 10.8 4.5 9.6 92 0.6 SE 33 41 18 22 1004.8 1004.8 4.6
01/01:00pm 10.0 3.2 9.1 94 0.4 SSE 35 44 19 24 1004.6 1004.6 4.6
01/12:30pm 10.0 2.9 9.5 97 0.2 SSE 37 46 20 25 1004.4 1004.4 4.6
01/12:00pm 9.6 2.8 9.3 98 0.1 SSE 35 46 19 25 1004.4 1004.4 4.6
01/11:30am 9.6 3.2 9.5 99 0.0 SSE 33 44 18 24 1004.2 1004.2 4.6
01/11:00am 9.5 2.7 9.4 99 0.0 SSE 35 46 19 25 1003.7 1003.7 4.6
01/10:30am 10.1 3.9 9.9 99 0.1 S 33 46 18 25 1003.5 1003.5 4.0
01/10:05am 10.0 3.8 9.9 99 0.1 SSE 33 41 18 22 1002.9 1002.9 2.6
01/10:00am 10.2 7.4 10.0 99 0.1 SSE 15 20 8 11 1003.0 1003.0 2.4
01/09:30am 10.2 6.1 10.0 99 0.1 S 22 28 12 15 1002.9 1003.0 1.4
01/09:00am 10.4 7.7 10.2 99 0.1 S 15 20 8 11 1002.9 1002.9 14.6
01/08:30am 10.5 6.8 10.3 99 0.1 S 20 26 11 14 1002.8 1002.9 13.2
01/08:00am 10.7 10.1 10.5 99 0.1 SSW 4 9 2 5 1002.8 1002.8 11.4
01/07:30am 10.7 8.0 10.4 98 0.2 W 15 22 8 12 1002.4 1002.5 6.8
01/07:11am 11.4 6.5 11.2 99 0.1 N 28 46 15 25 1002.6 1002.7 6.2
01/07:00am 11.2 7.7 11.0 99 0.1 N 20 32 11 17 1002.4 1002.4 5.8
01/06:30am 11.1 9.7 10.8 98 0.2 N 9 15 5 8 1002.8 1002.9 5.0
01/06:00am 11.3 7.1 11.0 98 0.2 W 24 33 13 18 1003.1 1003.2 3.4
01/05:38am 11.5 6.1 11.0 97 0.3 WNW 30 48 16 26 1003.3 1003.4 2.8
01/05:36am 11.6 5.9 11.1 97 0.3 WNW 32 48 17 26 1003.3 1003.4 2.6
01/05:30am 11.9 4.9 11.4 97 0.3 NNW 39 54 21 29 1002.9 1003.0 2.6
01/05:07am 12.1 4.8 11.6 97 0.3 NNW 41 59 22 32 1002.9 1003.0 2.2
01/05:00am 12.2 4.3 11.6 96 0.3 NNW 44 57 24 31 1003.0 1003.0 2.0
01/04:39am 12.2 4.3 11.4 95 0.4 NNW 44 63 24 34 1003.1 1003.2 1.6
01/04:30am 12.4 4.5 11.5 94 0.5 NNW 44 61 24 33 1003.1 1003.2 1.2
01/04:00am 12.7 3.2 11.3 91 0.7 NNW 52 63 28 34 1003.3 1003.3 0.4
01/03:39am 12.7 3.5 10.9 89 0.9 NNW 50 70 27 38 1003.2 1003.3 0.2
01/03:30am 13.0 3.9 11.1 88 1.0 NNW 50 63 27 34 1003.2 1003.3 0.2
01/03:02am 14.1 4.2 9.9 76 2.2 NNW 52 70 28 38 1003.3 1003.4 0.0
01/03:00am 14.2 4.8 10.0 76 2.2 NNW 50 67 27 36 1003.2 1003.2 0.0
01/02:30am 14.8 6.1 9.8 72 2.6 NNW 46 65 25 35 1003.2 1003.3 0.0
01/02:10am 14.9 6.7 9.7 71 2.7 NNW 43 63 23 34 1003.4 1003.5 0.0
01/02:00am 14.5 7.1 9.7 73 2.5 NNW 39 54 21 29 1003.5 1003.5 0.0
01/01:30am 15.2 7.9 8.9 66 3.2 NNW 37 57 20 31 1003.8 1003.9 0.0
01/01:00am 15.3 6.3 8.8 65 3.3 NNW 46 65 25 35 1003.8 1003.8 0.0
01/12:30am 16.1 7.2 7.6 57 4.3 NNW 44 67 24 36 1004.1 1004.2 0.0
01/12:00am 15.7 7.7 7.5 58 4.1 N 39 57 21 31 1004.2 1004.2 0.0
 
Date/Time
EST
Temp
°C
App
Temp
°C
Dew
Point
Rel
Hum
%
Delta-T
°C
Wind Press
QNH
hPa
Press
MSL
hPa
Rain
since 9 am
mm
Dir
 
Spd
km/h
Gust
km/h
Spd
kts
Gust
kts
31/11:48pm 15.5 8.6 7.3 58 4.1 N 33 54 18 29 1004.2 1004.3 0.0
31/11:30pm 15.5 8.2 7.0 57 4.2 N 35 48 19 26 1004.4 1004.5 0.0
31/11:18pm 15.6 8.6 6.9 56 4.3 N 33 54 18 29 1004.3 1004.4 0.0
31/11:00pm 15.2 8.4 7.0 58 4.0 N 32 46 17 25 1004.7 1004.8 0.0
31/10:30pm 14.4 8.5 7.5 63 3.4 N 28 37 15 20 1005.5 1005.6 0.0
31/10:00pm 14.6 9.4 7.4 62 3.6 N 24 32 13 17 1006.4 1006.5 0.0
31/09:30pm 14.6 9.4 7.4 62 3.6 N 24 37 13 20 1006.8 1006.9 0.0
31/09:00pm 14.5 9.4 7.5 63 3.5 N 24 33 13 18 1007.0 1007.1 0.0
31/08:30pm 14.8 9.6 7.4 61 3.7 N 24 33 13 18 1007.3 1007.4 0.0
31/08:00pm 15.2 10.5 7.7 61 3.7 N 22 32 12 17 1007.4 1007.5 0.0
31/07:30pm 15.5 10.8 7.8 60 3.9 N 22 32 12 17 1007.5 1007.6 0.0
31/07:00pm 15.5 11.2 7.8 60 3.9 N 20 32 11 17 1007.6 1007.7 0.0
31/06:30pm 15.6 10.9 7.9 60 3.9 N 22 32 12 17 1007.7 1007.8 0.0
31/06:00pm 16.0 11.4 8.0 59 4.0 N 22 32 12 17 1007.7 1007.8 0.0
31/05:30pm 16.8 11.3 7.7 55 4.6 N 26 37 14 20 1007.9 1008.0 0.0
31/05:00pm 17.3 11.0 7.6 53 4.9 N 30 43 16 23 1008.1 1008.2 0.0
31/04:33pm 17.5 11.7 7.8 53 4.9 N 28 46 15 25 1008.1 1008.2 0.0
31/04:30pm 17.6 11.4 7.9 53 4.9 N 30 46 16 25 1008.1 1008.2 0.0
31/04:16pm 17.7 11.2 8.0 53 4.9 NNW 32 50 17 27 1008.2 1008.3 0.0
31/04:00pm 18.1 11.4 7.5 50 5.4 NNW 32 46 17 25 1008.4 1008.5 0.0
31/03:40pm 18.4 11.1 7.2 48 5.6 NNW 35 54 19 29 1008.6 1008.7 0.0
31/03:30pm 18.6 11.8 7.7 49 5.6 N 33 44 18 24 1008.6 1008.7 0.0
31/03:00pm 18.6 13.3 8.3 51 5.3 N 26 39 14 21 1008.9 1009.0 0.0
31/02:30pm 18.4 12.7 8.4 52 5.2 N 28 39 15 21 1009.3 1009.4 0.0
31/02:00pm 18.6 12.0 7.7 49 5.6 NNW 32 44 17 24 1009.7 1009.8 0.0
31/01:30pm 17.9 11.3 8.5 54 4.8 NNW 33 46 18 25 1010.1 1010.2 0.0
31/01:00pm 17.7 9.5 8.3 54 4.8 NNW 41 54 22 29 1010.5 1010.6 0.0
31/12:40pm 18.4 11.7 8.1 51 5.3 NNW 33 52 18 28 1010.9 1011.0 0.0
31/12:30pm 18.2 11.4 7.9 51 5.3 NNW 33 48 18 26 1011.2 1011.3 0.0
31/12:00pm 17.2 10.9 7.3 52 5.0 NNW 30 48 16 26 1011.8 1011.9 0.0
31/11:59am 17.2 11.2 7.0 51 5.1 NNW 28 48 15 26 1011.8 1011.9 0.0
31/11:30am 17.1 10.6 6.3 49 5.3 N 30 43 16 23 1012.2 1012.3 0.0
31/11:00am 17.1 10.1 6.0 48 5.4 N 32 44 17 24 1012.4 1012.5 0.0
31/10:30am 16.1 9.9 6.3 52 4.8 N 28 43 15 23 1012.8 1012.9 0.0
31/10:00am 15.8 10.0 6.3 53 4.6 N 26 35 14 19 1013.1 1013.2 0.0
31/09:30am 15.1 8.5 6.1 55 4.3 N 30 41 16 22 1013.3 1013.4 0.0
31/09:00am 13.4 7.6 6.3 62 3.4 N 26 37 14 20 1013.6 1013.7 0.0
31/08:30am 12.6 6.4 6.0 64 3.1 N 28 33 15 18 1013.8 1013.9 0.0
31/08:00am 11.3 5.0 5.6 68 2.6 N 28 39 15 21 1013.9 1014.0 0.0
31/07:30am 10.3 4.3 5.1 70 2.4 N 26 37 14 20 1014.1 1014.2 0.0
31/07:00am 10.2 3.8 5.0 70 2.4 N 28 37 15 20 1014.2 1014.3 0.0
31/06:30am 9.9 3.8 4.7 70 2.3 N 26 33 14 18 1014.2 1014.3 0.0
31/06:00am 9.6 3.5 4.6 71 2.2 N 26 37 14 20 1014.2 1014.3 0.0
31/05:30am 8.6 3.1 4.0 73 2.0 N 22 30 12 16 1014.5 1014.6 0.0
31/05:00am 8.4 3.2 3.8 73 2.0 N 20 30 11 16 1014.6 1014.7 0.0
31/04:30am 7.7 2.7 3.4 74 1.8 N 19 24 10 13 1015.0 1015.1 0.0
31/04:00am 7.0 1.8 2.7 74 1.8 N 19 22 10 12 1015.3 1015.4 0.0
31/03:30am 6.9 1.7 2.4 73 1.9 N 19 22 10 12 1016.0 1016.0 0.0
31/03:00am 6.5 1.2 2.0 73 1.8 N 19 22 10 12 1016.2 1016.3 0.0
31/02:30am 6.9 1.6 1.6 69 2.1 N 19 24 10 13 1016.6 1016.6 0.0
31/02:00am 7.1 2.4 1.2 66 2.4 N 15 22 8 12 1017.2 1017.3 0.0
31/01:30am 8.7 3.1 0.9 58 3.2 N 20 24 11 13 1017.6 1017.6 0.0
31/01:00am 8.7 3.4 3.1 68 2.4 N 20 26 11 14 1017.9 1018.0 0.0
31/12:30am 8.8 3.5 3.2 68 2.4 N 20 24 11 13 1018.1 1018.1 0.0
31/12:00am 8.5 3.5 3.8 72 2.0 N 19 22 10 12 1018.6 1018.7 0.0
 
Date/Time
EST
Temp
°C
App
Temp
°C
Dew
Point
Rel
Hum
%
Delta-T
°C
Wind Press
QNH
hPa
Press
MSL
hPa
Rain
since 9 am
mm
Dir
 
Spd
km/h
Gust
km/h
Spd
kts
Gust
kts
30/11:30pm 9.1 4.5 6.4 83 1.2 N 20 22 11 12 1018.6 1018.6 0.0
30/11:00pm 8.7 4.8 7.3 91 0.7 N 17 17 9 9 1019.1 1019.2 0.0
30/10:30pm 9.2 5.2 8.1 93 0.5 N 19 20 10 11 1019.3 1019.3 0.0
30/10:00pm 9.3 4.8 8.4 94 0.4 NNE 22 24 12 13 1019.6 1019.7 0.0
30/09:30pm 9.4 5.3 8.5 94 0.4 NE 20 20 11 11 1019.9 1019.9 0.0
30/09:00pm 9.2 5.5 8.0 92 0.6 NE 17 19 9 10 1020.4 1020.5 0.0
30/08:30pm 9.6 6.4 8.4 92 0.6 ENE 15 15 8 8 1020.7 1020.7 0.0
30/08:00pm 9.7 7.2 8.1 90 0.8 ENE 11 13 6 7 1021.0 1021.1 0.0
30/07:30pm 9.8 7.6 7.7 87 1.0 E 9 13 5 7 1021.0 1021.0 0.0
30/07:00pm 10.2 7.9 7.6 84 1.2 E 9 11 5 6 1021.1 1021.2 0.0
30/06:30pm 11.1 9.5 7.8 80 1.6 ESE 6 7 3 4 1021.3 1021.3 0.0
30/06:00pm 11.1 10.5 7.2 77 1.9 CALM 0 0 0 0 1021.4 1021.5 0.0
30/05:30pm 13.1 12.8 8.8 75 2.2 CALM 0 0 0 0 1021.4 1021.4 0.0
30/05:00pm 14.1 12.9 9.5 74 2.4 WNW 6 7 3 4 1021.6 1021.7 0.0
30/04:30pm 14.3 12.2 9.7 74 2.4 WNW 11 13 6 7 1021.9 1021.9 0.0
30/04:00pm 14.9 12.2 10.3 74 2.4 WNW 15 17 8 9 1022.1 1022.2 0.0
30/03:30pm 14.6 12.1 9.6 72 2.6 W 13 15 7 8 1022.5 1022.5 0.0
30/03:00pm 15.3 12.1 10.1 71 2.7 WNW 17 20 9 11 1022.6 1022.7 0.0
30/02:30pm 15.1 10.9 9.7 70 2.8 NW 22 24 12 13 1022.8 1022.8 0.0
30/02:00pm 14.9 10.0 9.9 72 2.6 WNW 26 30 14 16 1023.4 1023.5 0.0
30/01:30pm 14.7 9.4 9.9 73 2.5 WNW 28 32 15 17 1023.8 1023.8 0.0
30/01:00pm 14.8 9.4 9.6 71 2.7 NW 28 33 15 18 1024.2 1024.3 0.0
30/12:30pm 15.3 11.6 10.1 71 2.7 NW 20 26 11 14 1024.5 1024.5 0.0
30/12:00pm 14.8 11.1 9.6 71 2.7 NW 19 24 10 13 1025.0 1025.1 0.0
30/11:30am 14.5 10.7 9.1 70 2.8 NW 19 24 10 13 1025.3 1025.3 0.0
30/11:00am 14.2 10.7 8.6 69 2.8 NW 17 20 9 11 1025.6 1025.7 0.0
30/10:30am 14.7 11.4 9.5 71 2.7 NW 17 22 9 12 1026.1 1026.1 0.0
30/10:00am 14.0 11.5 9.6 75 2.2 NW 13 17 7 9 1026.5 1026.6 0.0
30/09:30am 13.6 11.8 10.8 83 1.5 NNW 11 15 6 8 1026.8 1026.9 0.0
30/09:00am 12.3 10.0 10.5 89 0.9 NNW 13 15 7 8 1027.1 1027.2 0.0
30/08:30am 11.1 8.7 10.0 93 0.6 N 13 15 7 8 1027.4 1027.5 0.0
30/08:00am 9.7 6.6 8.9 95 0.4 N 15 17 8 9 1027.5 1027.6 0.0
30/07:30am 8.5 5.5 7.7 95 0.4 N 13 17 7 9 1027.5 1027.6 0.0
30/07:00am 8.2 4.7 7.4 95 0.4 N 15 17 8 9 1027.4 1027.5 0.0
30/06:30am 8.3 4.9 7.5 95 0.4 N 15 19 8 10 1027.1 1027.2 0.0
30/06:00am 8.7 5.0 7.9 95 0.4 N 17 20 9 11 1027.0 1027.1 0.0
30/05:30am 9.3 5.7 8.5 95 0.4 N 17 20 9 11 1027.0 1027.1 0.0
30/05:00am 8.8 4.8 8.2 96 0.3 N 19 22 10 12 1027.1 1027.2 0.0
30/04:30am 8.4 4.1 7.8 96 0.3 N 20 24 11 13 1027.3 1027.4 0.0

Other Formats:

Comma delimited format used in spreadsheet applications
http://www.bom.gov.au/fwo/IDT60801/IDT60801.95961.axf

JavaScript Object Notation format (JSON) in row-major order
http://www.bom.gov.au/fwo/IDT60801/IDT60801.95961.json